Hughes, AK

8:52 AM AKST on November 26, 2014 (GMT -0900)
Indian Mountain | Change Station
CLOSE
Current Station
Airport
Location: Indian Mountain,
Elevation: 1276 ft
Nearby Weather Stations

Elev 1276 ft 65.99 °N, 153.70 °W | Updated 55 minutes ago

Clear
Clear
-6 °F
Feels Like -6 °F
N
0
Wind Variable Wind from North

Today
High -- | Low -- °F
--% Chance of Precip.
Yesterday
High -- | Low -- °F
Precip. -- in
10:44 AM 3:19 PM
Waxing Crescent, 21% visible
Pressure 30.63 in
Visibility 10.0 miles
Clouds Clear
Dew Point -9 °F
Humidity 84%
Rainfall 0.00 in
Snow Depth Not available.
UV 0 out of 12
Pollen Not available.
Air Quality Not available.
Flu Activity Not available.
METAR PAIM 261657Z 00000KT 10SM CLR M21/M23 A3046 RMK AO2A SLP373 LSR12UP11DN

More Conditions Fewer Conditions

Pressure 30.63 in
Visibility 10.0 miles
Clouds Clear
Dew Point -9 °F
Humidity 84%
Rainfall 0.00 in
Snow Depth Not available.
UV 0 out of 12
Pollen Not available.
Air Quality Not available.
Flu Activity Not available.
METAR PAIM 261657Z 00000KT 10SM CLR M21/M23 A3046 RMK AO2A SLP373 LSR12UP11DN

More Conditions Fewer Conditions

10-Day Weather Forecast

Almanac

Astronomy

Nov. 26, 2014 Rise Set
Actual Time
Civil Twilight
Nautical Twilight
Astronomical Twilight
Moon
Length of Visible Light
Length of Day
Tomorrow will be .
, % of the Moon is Illuminated

Today's Extremes

State Highs State Lows

Community

WunderPhotos

Upload Photos

1,773,808 photos uploaded!

WunderBlogs® & News

Nearby

Air Quality

  Air Quality AQ Index Pollutant
Not available.

Snow Depth

Station Depth Elevation

Earthquake Activity

City Distance Mag. Time & Date
Minimum magnitude displayed is 2.5.

Coastal Water Temperatures

Place Temperature

Nearby Weather Stations